createdAt,value
2022-09-10T00:03:46.039Z,16.00
2022-09-10T00:09:47.958Z,15.90
2022-09-10T00:15:53.645Z,15.70
2022-09-10T00:21:55.659Z,15.60
2022-09-10T00:27:57.793Z,15.60
2022-09-10T00:34:02.164Z,15.40
2022-09-10T00:40:04.878Z,15.30
2022-09-10T00:46:06.902Z,15.20
2022-09-10T00:52:09.563Z,15.20
2022-09-10T00:58:13.916Z,15.20
2022-09-10T01:04:16.168Z,15.20
2022-09-10T01:10:28.897Z,15.20
2022-09-10T01:16:59.553Z,15.30
2022-09-10T01:23:41.427Z,15.40
2022-09-10T01:30:04.052Z,15.40
2022-09-10T01:36:16.514Z,15.40
2022-09-10T01:42:18.727Z,15.40
2022-09-10T01:48:43.926Z,15.50
2022-09-10T01:55:41.923Z,15.50
2022-09-10T02:01:58.069Z,15.50
2022-09-10T02:08:05.162Z,15.40
2022-09-10T02:14:07.106Z,15.40
2022-09-10T02:20:14.345Z,15.40
2022-09-10T02:26:16.381Z,15.40
2022-09-10T02:32:18.323Z,15.40
2022-09-10T02:38:21.512Z,15.40
2022-09-10T02:44:23.473Z,15.30
2022-09-10T02:50:25.548Z,15.30
2022-09-10T02:56:27.459Z,15.30
2022-09-10T03:02:29.382Z,15.40
2022-09-10T03:08:31.961Z,15.40
2022-09-10T03:14:34.170Z,15.50
2022-09-10T03:20:36.465Z,15.40
2022-09-10T03:26:38.508Z,15.50
2022-09-10T03:32:41.651Z,15.50
2022-09-10T03:38:44.069Z,15.60
2022-09-10T03:44:45.971Z,15.60
2022-09-10T03:50:51.942Z,15.60
2022-09-10T03:56:53.958Z,15.60
2022-09-10T04:02:55.929Z,15.60
2022-09-10T04:08:57.807Z,15.60
2022-09-10T04:15:01.560Z,15.50
2022-09-10T04:21:03.535Z,15.60
2022-09-10T04:27:06.337Z,15.50
2022-09-10T04:33:08.465Z,15.50
2022-09-10T04:39:10.500Z,15.50
2022-09-10T04:45:12.920Z,15.40
2022-09-10T04:51:16.654Z,15.40
2022-09-10T04:57:19.364Z,15.40
2022-09-10T05:03:21.832Z,15.30
2022-09-10T05:09:23.779Z,15.30
2022-09-10T05:15:25.694Z,15.40
2022-09-10T05:21:29.126Z,15.30
2022-09-10T05:27:31.035Z,15.30
2022-09-10T05:33:32.977Z,15.20
2022-09-10T05:39:35.173Z,15.10
2022-09-10T05:45:37.332Z,15.00
2022-09-10T05:51:39.295Z,15.00
2022-09-10T05:57:41.519Z,15.00
2022-09-10T06:03:43.421Z,15.10
2022-09-10T06:09:45.330Z,15.20
2022-09-10T06:15:47.235Z,15.30
2022-09-10T06:21:52.366Z,15.50
2022-09-10T06:27:54.545Z,15.70
2022-09-10T06:33:56.550Z,16.00
2022-09-10T06:39:58.463Z,16.20
2022-09-10T06:46:00.505Z,16.70
2022-09-10T06:52:03.298Z,19.20
2022-09-10T06:58:05.189Z,20.30
2022-09-10T07:04:09.091Z,19.60
2022-09-10T07:10:10.969Z,19.10
2022-09-10T07:16:12.892Z,18.50
2022-09-10T07:22:14.838Z,18.40
2022-09-10T07:28:18.518Z,18.40
2022-09-10T07:34:20.468Z,18.40
2022-09-10T07:40:23.439Z,18.20
2022-09-10T07:46:25.735Z,18.20
2022-09-10T07:52:27.814Z,18.10
2022-09-10T07:58:31.793Z,18.00
2022-09-10T08:04:37.538Z,17.80
2022-09-10T08:10:40.300Z,17.70
2022-09-10T08:16:44.457Z,17.50
2022-09-10T08:22:49.306Z,17.60
2022-09-10T08:28:57.840Z,17.90
2022-09-10T08:34:59.827Z,18.10
2022-09-10T08:41:26.227Z,18.10
2022-09-10T09:01:34.640Z,17.60
2022-09-10T09:07:39.282Z,17.50
2022-09-10T09:14:42.359Z,17.80
2022-09-10T09:20:51.574Z,18.20
2022-09-10T09:27:09.923Z,18.50
2022-09-10T09:33:18.786Z,18.50
2022-09-10T09:39:47.193Z,18.40
2022-09-10T09:45:50.094Z,18.30
2022-09-10T09:51:52.349Z,18.10
2022-09-10T09:58:24.080Z,18.30
2022-09-10T10:04:31.182Z,18.70
2022-09-10T10:10:33.148Z,18.70
2022-09-10T10:16:36.299Z,19.50
2022-09-10T10:22:41.272Z,20.20
2022-09-10T11:31:15.280Z,25.20
2022-09-10T11:37:47.349Z,24.80
2022-09-10T11:44:23.027Z,25.30
2022-09-10T11:57:06.537Z,24.40
2022-09-10T12:03:29.942Z,22.80
2022-09-10T12:15:55.154Z,19.60
2022-09-10T12:22:03.866Z,19.10
2022-09-10T12:28:52.887Z,18.90
2022-09-10T12:35:32.724Z,19.00
2022-09-10T12:41:36.156Z,19.70
2022-09-10T12:47:43.738Z,20.80
2022-09-10T12:54:04.294Z,21.50
2022-09-10T13:00:19.728Z,22.00
2022-09-10T13:06:44.184Z,22.10
2022-09-10T13:12:48.362Z,22.30
2022-09-10T13:18:55.115Z,22.50
2022-09-10T13:25:05.275Z,22.40
2022-09-10T13:31:21.733Z,22.10
2022-09-10T13:37:51.884Z,21.70
2022-09-10T13:44:31.343Z,21.50
2022-09-10T13:50:45.914Z,21.60
2022-09-10T13:56:48.023Z,21.50
2022-09-10T14:02:59.728Z,21.70
2022-09-10T14:09:06.894Z,21.80
2022-09-10T14:15:17.581Z,22.20
2022-09-10T14:21:26.949Z,22.40
2022-09-10T14:27:38.993Z,22.70
2022-09-10T14:33:41.114Z,23.70
2022-09-10T14:39:44.741Z,25.00
2022-09-10T14:45:47.849Z,24.10
2022-09-10T14:51:49.737Z,23.80
2022-09-10T14:57:56.067Z,24.50
2022-09-10T15:04:01.485Z,24.20
2022-09-10T15:10:03.675Z,24.20
2022-09-10T15:16:06.074Z,24.20
2022-09-10T15:22:27.989Z,24.20
2022-09-10T15:28:29.938Z,24.00
2022-09-10T15:34:31.809Z,23.30
2022-09-10T15:40:33.728Z,22.90
2022-09-10T15:46:35.707Z,22.50
2022-09-10T15:52:38.326Z,22.80
2022-09-10T15:58:42.035Z,22.70
2022-09-10T16:04:44.017Z,21.90
2022-09-10T16:10:45.941Z,21.30
2022-09-10T16:16:48.491Z,20.80
2022-09-10T16:22:53.686Z,20.40
2022-09-10T16:28:58.994Z,20.00
2022-09-10T16:35:00.924Z,19.60
2022-09-10T16:41:04.180Z,19.20
2022-09-10T16:47:06.290Z,18.70
2022-09-10T16:53:11.967Z,18.20
2022-09-10T16:59:20.239Z,17.80
2022-09-10T17:05:23.484Z,17.60
2022-09-10T17:11:28.261Z,17.50
2022-09-10T17:17:30.186Z,17.40
2022-09-10T17:23:32.752Z,17.30
2022-09-10T17:29:34.661Z,17.10
2022-09-10T17:35:36.564Z,17.10
2022-09-10T17:41:39.622Z,16.90
2022-09-10T17:47:41.550Z,16.90
2022-09-10T17:53:43.948Z,16.70
2022-09-10T17:59:46.214Z,16.60
2022-09-10T18:05:48.130Z,16.40
2022-09-10T18:11:50.052Z,16.30
2022-09-10T18:17:51.990Z,16.30
2022-09-10T18:24:02.308Z,16.30
2022-09-10T18:30:05.018Z,16.30
2022-09-10T18:36:13.465Z,16.30
2022-09-10T18:42:15.401Z,16.30
2022-09-10T18:48:17.289Z,16.30
2022-09-10T18:54:20.572Z,16.30
2022-09-10T19:00:22.526Z,16.40
2022-09-10T19:06:28.789Z,16.40
2022-09-10T19:12:30.698Z,16.40
2022-09-10T19:18:32.788Z,16.40
2022-09-10T19:24:54.060Z,16.40
2022-09-10T19:31:07.117Z,16.40
2022-09-10T19:37:09.774Z,16.40
2022-09-10T19:43:12.492Z,16.30
2022-09-10T19:49:14.454Z,16.30
2022-09-10T19:55:18.081Z,16.40
2022-09-10T20:01:27.536Z,16.40
2022-09-10T20:07:31.156Z,16.40
2022-09-10T20:13:35.284Z,16.40
2022-09-10T20:19:37.168Z,16.30
2022-09-10T20:25:41.065Z,16.30
2022-09-10T20:31:44.411Z,16.30
2022-09-10T20:37:50.004Z,16.20
2022-09-10T20:43:54.047Z,16.20
2022-09-10T20:49:56.342Z,16.20
2022-09-10T20:56:10.216Z,16.10
2022-09-10T21:02:12.979Z,16.00
2022-09-10T21:08:15.273Z,16.00
2022-09-10T21:14:18.639Z,15.90
2022-09-10T21:20:22.411Z,15.90
2022-09-10T21:26:28.516Z,15.80
2022-09-10T21:32:30.917Z,15.70
2022-09-10T21:38:37.944Z,15.70
2022-09-10T21:44:39.912Z,15.70
2022-09-10T21:50:41.926Z,15.60
2022-09-10T21:56:44.187Z,15.60
2022-09-10T22:02:46.136Z,15.60
2022-09-10T22:08:55.152Z,15.60
2022-09-10T22:14:57.048Z,15.50
2022-09-10T22:21:02.616Z,15.40
2022-09-10T22:27:04.624Z,15.40
2022-09-10T22:33:06.535Z,15.40
2022-09-10T22:39:15.078Z,15.40
2022-09-10T22:45:17.809Z,15.40
2022-09-10T22:51:25.082Z,15.40
2022-09-10T22:57:28.543Z,15.50
2022-09-10T23:03:31.006Z,15.50
2022-09-10T23:09:33.154Z,15.50
2022-09-10T23:15:35.147Z,15.50
2022-09-10T23:21:45.559Z,15.40
2022-09-10T23:27:51.123Z,15.40
2022-09-10T23:33:59.603Z,15.40
2022-09-10T23:40:02.045Z,15.30
2022-09-10T23:46:04.087Z,15.20
2022-09-10T23:52:07.097Z,15.10
2022-09-10T23:58:08.984Z,14.90
